createdAt,value
2023-01-03T00:01:15.789Z,12.20
2023-01-03T00:03:42.833Z,12.30
2023-01-03T00:06:16.952Z,12.20
2023-01-03T00:08:44.136Z,12.10
2023-01-03T00:11:13.679Z,12.00
2023-01-03T00:13:40.698Z,12.00
2023-01-03T00:16:18.678Z,11.90
2023-01-03T00:18:46.390Z,12.00
2023-01-03T00:21:13.458Z,12.10
2023-01-03T00:23:40.347Z,12.20
2023-01-03T00:26:15.740Z,12.20
2023-01-03T00:28:43.333Z,12.10
2023-01-03T00:31:12.375Z,11.90
2023-01-03T00:33:40.563Z,11.70
2023-01-03T00:36:09.619Z,11.50
2023-01-03T00:38:37.394Z,11.30
2023-01-03T00:41:13.238Z,11.30
2023-01-03T00:43:42.571Z,11.30
2023-01-03T00:46:11.104Z,11.40
2023-01-03T00:48:38.467Z,11.40
2023-01-03T00:51:09.025Z,11.60
2023-01-03T00:53:37.091Z,11.70
2023-01-03T00:56:12.429Z,11.80
2023-01-03T00:58:39.695Z,11.70
2023-01-03T01:01:15.994Z,11.60
2023-01-03T01:03:46.557Z,11.60
2023-01-03T01:06:19.194Z,11.70
2023-01-03T01:08:47.243Z,11.70
2023-01-03T01:11:15.126Z,11.80
2023-01-03T01:13:43.613Z,11.80
2023-01-03T01:16:17.672Z,11.80
2023-01-03T01:18:46.751Z,11.60
2023-01-03T01:21:16.508Z,11.50
2023-01-03T01:23:44.475Z,11.50
2023-01-03T01:26:14.391Z,11.30
2023-01-03T01:28:41.761Z,11.30
2023-01-03T01:31:10.338Z,11.50
2023-01-03T01:33:37.343Z,11.50
2023-01-03T01:36:17.058Z,11.50
2023-01-03T01:38:44.819Z,11.50
2023-01-03T01:41:14.557Z,11.50
2023-01-03T01:44:16.365Z,11.50
2023-01-03T01:46:43.625Z,11.40
2023-01-03T01:49:17.206Z,11.50
2023-01-03T01:51:44.270Z,11.50
2023-01-03T01:54:11.640Z,11.60
2023-01-03T01:56:46.891Z,11.50
2023-01-03T01:59:14.355Z,11.50
2023-01-03T02:01:45.135Z,11.50
2023-01-03T02:04:27.563Z,11.40
2023-01-03T02:06:55.338Z,11.30
2023-01-03T02:09:22.150Z,11.30
2023-01-03T02:12:19.511Z,11.30
2023-01-03T02:15:17.949Z,11.40
2023-01-03T02:17:53.450Z,11.50
2023-01-03T02:20:23.959Z,11.50
2023-01-03T02:23:20.853Z,11.40
2023-01-03T02:26:03.517Z,11.50
2023-01-03T02:28:47.952Z,11.50
2023-01-03T02:31:43.396Z,11.40
2023-01-03T02:34:21.364Z,11.30
2023-01-03T02:36:54.122Z,11.10
2023-01-03T02:39:24.039Z,11.00
2023-01-03T02:42:17.593Z,11.10
2023-01-03T02:45:05.558Z,11.10
2023-01-03T02:47:39.883Z,11.30
2023-01-03T02:50:11.770Z,11.40
2023-01-03T02:52:41.369Z,11.20
2023-01-03T02:55:19.960Z,11.20
2023-01-03T02:58:13.197Z,11.20
2023-01-03T03:00:44.035Z,11.20
2023-01-03T03:03:17.685Z,11.30
2023-01-03T03:05:57.809Z,11.40
2023-01-03T03:08:24.890Z,11.30
2023-01-03T03:11:12.017Z,11.40
2023-01-03T03:13:52.997Z,11.40
2023-01-03T03:16:42.771Z,11.30
2023-01-03T03:19:51.652Z,11.20
2023-01-03T03:23:04.002Z,11.20
2023-01-03T03:25:47.912Z,11.10
2023-01-03T03:28:36.506Z,11.10
2023-01-03T03:31:31.127Z,11.10
2023-01-03T03:34:11.982Z,11.10
2023-01-03T03:36:56.907Z,11.10
2023-01-03T03:39:44.114Z,11.10
2023-01-03T03:43:04.801Z,11.20
2023-01-03T03:46:05.653Z,11.20
2023-01-03T03:49:01.261Z,11.10
2023-01-03T03:51:32.719Z,11.00
2023-01-03T03:54:04.973Z,10.80
2023-01-03T03:56:34.098Z,10.80
2023-01-03T03:59:08.277Z,10.90
2023-01-03T04:01:38.787Z,11.10
2023-01-03T04:04:10.914Z,11.20
2023-01-03T04:06:43.741Z,11.20
2023-01-03T04:09:10.766Z,11.00
2023-01-03T04:11:37.483Z,11.00
2023-01-03T04:14:04.299Z,11.20
2023-01-03T04:16:31.117Z,11.30
2023-01-03T04:18:57.960Z,11.30
2023-01-03T04:21:24.983Z,11.30
2023-01-03T04:23:51.800Z,11.20
2023-01-03T04:26:18.610Z,11.10
2023-01-03T04:28:45.481Z,11.10
2023-01-03T04:31:12.474Z,11.00
2023-01-03T04:33:39.283Z,11.10
2023-01-03T04:36:06.305Z,11.10
2023-01-03T04:38:33.044Z,11.10
2023-01-03T04:41:07.944Z,11.20
2023-01-03T04:43:53.539Z,11.30
2023-01-03T04:46:20.807Z,11.30
2023-01-03T04:48:47.841Z,11.20
2023-01-03T04:51:15.126Z,11.20
2023-01-03T04:53:41.972Z,11.10
2023-01-03T04:56:08.800Z,10.90
2023-01-03T04:58:35.644Z,10.90
2023-01-03T05:01:04.609Z,11.00
2023-01-03T05:03:31.563Z,10.90
2023-01-03T05:06:03.596Z,11.00
2023-01-03T05:08:30.893Z,11.00
2023-01-03T05:10:57.697Z,10.90
2023-01-03T05:13:24.472Z,10.90
2023-01-03T05:15:51.279Z,10.90
2023-01-03T05:18:18.227Z,11.00
2023-01-03T05:21:04.109Z,11.00
2023-01-03T05:23:50.019Z,11.00
2023-01-03T05:26:20.354Z,11.00
2023-01-03T05:28:50.660Z,11.00
2023-01-03T05:31:17.601Z,10.90
2023-01-03T05:33:44.416Z,10.90
2023-01-03T05:36:11.565Z,10.80
2023-01-03T05:38:38.601Z,10.60
2023-01-03T05:41:05.788Z,10.50
2023-01-03T05:43:32.744Z,10.30
2023-01-03T05:45:59.665Z,10.20
2023-01-03T05:48:27.031Z,10.20
2023-01-03T05:50:57.431Z,10.20
2023-01-03T05:53:24.969Z,10.20
2023-01-03T05:55:51.797Z,10.20
2023-01-03T05:58:18.644Z,10.20
2023-01-03T06:00:45.429Z,10.20
2023-01-03T06:03:12.316Z,10.10
2023-01-03T06:05:41.938Z,10.00
2023-01-03T06:08:13.176Z,9.80
2023-01-03T06:10:40.932Z,9.80
2023-01-03T06:13:07.877Z,9.90
2023-01-03T06:15:34.640Z,9.70
2023-01-03T06:18:02.588Z,9.70
2023-01-03T06:20:30.259Z,9.80
2023-01-03T06:22:57.472Z,9.70
2023-01-03T06:25:24.947Z,9.80
2023-01-03T06:27:51.731Z,9.70
2023-01-03T06:30:18.693Z,9.90
2023-01-03T06:32:45.671Z,9.90
2023-01-03T06:35:12.911Z,9.70
2023-01-03T06:37:40.023Z,9.60
2023-01-03T06:40:07.674Z,9.50
2023-01-03T06:42:42.456Z,9.30
2023-01-03T06:45:29.455Z,9.20
2023-01-03T06:48:15.131Z,9.20
2023-01-03T06:51:01.603Z,9.40
2023-01-03T06:53:35.812Z,9.50
2023-01-03T06:56:03.207Z,9.50
2023-01-03T06:58:30.672Z,9.50
2023-01-03T07:00:59.938Z,9.40
2023-01-03T07:03:27.079Z,9.40
2023-01-03T07:05:54.062Z,9.30
2023-01-03T07:08:21.039Z,9.20
2023-01-03T07:10:48.078Z,9.20
2023-01-03T07:13:33.530Z,9.30
2023-01-03T07:16:00.492Z,9.40
2023-01-03T07:18:27.292Z,9.50
2023-01-03T07:20:54.370Z,9.60
2023-01-03T07:23:21.404Z,9.40
2023-01-03T07:25:48.230Z,9.40
2023-01-03T07:28:15.795Z,9.30
2023-01-03T07:30:44.563Z,9.30
2023-01-03T07:33:13.931Z,9.40
2023-01-03T07:35:40.862Z,9.50
2023-01-03T07:38:09.054Z,9.50
2023-01-03T07:40:35.895Z,9.50
2023-01-03T07:43:21.444Z,9.50
2023-01-03T07:45:48.422Z,9.40
2023-01-03T07:48:15.689Z,9.50
2023-01-03T07:50:42.759Z,9.50
2023-01-03T07:53:16.346Z,9.50
2023-01-03T07:55:46.941Z,9.60
2023-01-03T07:58:13.722Z,9.70
2023-01-03T08:00:41.012Z,9.80
2023-01-03T08:03:11.185Z,9.80
2023-01-03T08:05:38.775Z,9.90
2023-01-03T08:08:05.862Z,10.00
2023-01-03T08:10:51.129Z,10.20
2023-01-03T08:13:17.977Z,10.30
2023-01-03T08:15:52.250Z,10.40
2023-01-03T08:18:22.219Z,10.40
2023-01-03T08:20:49.434Z,10.40
2023-01-03T08:23:16.233Z,10.30
2023-01-03T08:25:43.007Z,10.30
2023-01-03T08:28:11.548Z,10.20
2023-01-03T08:30:42.863Z,10.40
2023-01-03T08:33:13.626Z,10.40
2023-01-03T08:35:46.553Z,10.60
2023-01-03T08:38:18.566Z,10.60
2023-01-03T08:40:46.720Z,10.60
2023-01-03T08:43:15.783Z,10.70
2023-01-03T08:45:42.715Z,10.80
2023-01-03T08:48:10.517Z,10.90
2023-01-03T08:50:37.884Z,10.80
2023-01-03T08:53:05.855Z,10.80
2023-01-03T08:55:33.781Z,11.10
2023-01-03T08:58:01.043Z,11.10
2023-01-03T09:00:28.959Z,11.20
2023-01-03T09:03:02.025Z,11.10
2023-01-03T09:05:29.435Z,11.10
2023-01-03T09:07:57.995Z,11.30
2023-01-03T09:10:26.064Z,11.60
2023-01-03T09:12:53.062Z,10.80
2023-01-03T09:15:19.883Z,11.40
2023-01-03T09:17:48.342Z,11.30
2023-01-03T09:20:17.125Z,11.30
2023-01-03T09:22:43.916Z,11.30
2023-01-03T09:25:10.882Z,11.40
2023-01-03T09:27:37.663Z,11.40
2023-01-03T09:30:04.939Z,11.40
2023-01-03T09:32:31.797Z,11.30
2023-01-03T09:34:58.566Z,11.30
2023-01-03T09:37:25.433Z,11.30
2023-01-03T09:39:52.163Z,11.30
2023-01-03T09:42:41.238Z,11.30
2023-01-03T09:45:11.224Z,11.30
2023-01-03T09:47:39.312Z,11.40
2023-01-03T09:50:38.899Z,11.50
2023-01-03T09:53:16.515Z,11.70
2023-01-03T09:56:13.542Z,11.90
2023-01-03T09:59:00.049Z,12.00
2023-01-03T10:01:51.582Z,12.30
2023-01-03T10:04:52.887Z,12.50
2023-01-03T10:07:58.455Z,12.30
2023-01-03T10:10:52.055Z,12.30
2023-01-03T10:13:42.362Z,12.10
2023-01-03T10:16:47.768Z,11.70
2023-01-03T10:19:35.760Z,11.50
2023-01-03T10:22:30.276Z,11.30
2023-01-03T10:25:08.930Z,11.20
2023-01-03T10:27:46.960Z,11.20
2023-01-03T10:30:20.164Z,11.20
2023-01-03T10:32:56.003Z,11.40
2023-01-03T10:35:28.037Z,11.60
2023-01-03T10:37:56.390Z,11.80
2023-01-03T10:40:32.373Z,12.00
2023-01-03T10:42:59.188Z,12.20
2023-01-03T10:45:26.023Z,12.20
2023-01-03T10:48:00.766Z,12.20
2023-01-03T10:50:29.531Z,11.90
2023-01-03T10:53:08.700Z,11.60
2023-01-03T10:55:44.245Z,11.50
2023-01-03T10:58:22.106Z,11.60
2023-01-03T11:00:49.339Z,11.90
2023-01-03T11:03:19.766Z,12.10
2023-01-03T11:06:01.919Z,12.40
2023-01-03T11:08:54.845Z,12.40
2023-01-03T11:11:30.617Z,12.50
2023-01-03T11:14:09.232Z,12.50
2023-01-03T11:16:36.084Z,12.50
2023-01-03T11:19:05.436Z,12.60
2023-01-03T11:21:54.149Z,12.50
2023-01-03T11:24:36.292Z,12.70
2023-01-03T11:27:16.741Z,12.70
2023-01-03T11:30:17.265Z,12.70
2023-01-03T11:32:53.027Z,12.50
2023-01-03T11:35:24.421Z,12.20
2023-01-03T11:38:03.667Z,12.00
2023-01-03T11:40:52.225Z,12.00
2023-01-03T11:43:41.974Z,12.20
2023-01-03T11:46:39.073Z,11.90
2023-01-03T11:49:20.661Z,11.70
2023-01-03T11:52:08.847Z,11.60
2023-01-03T11:54:38.625Z,11.70
2023-01-03T11:57:43.026Z,11.60
2023-01-03T12:00:58.480Z,11.70
2023-01-03T12:04:08.104Z,11.50
2023-01-03T12:06:39.055Z,11.40
2023-01-03T12:09:18.194Z,11.70
2023-01-03T12:11:47.963Z,11.80
2023-01-03T12:14:21.764Z,11.90
2023-01-03T12:17:06.178Z,12.10
2023-01-03T12:20:02.781Z,12.10
2023-01-03T12:22:41.616Z,12.10
2023-01-03T12:25:37.738Z,12.00
2023-01-03T12:28:23.943Z,12.10
2023-01-03T12:30:58.830Z,12.00
2023-01-03T12:33:58.075Z,12.10
2023-01-03T12:36:30.680Z,12.20
2023-01-03T12:39:45.816Z,12.10
2023-01-03T12:42:31.365Z,12.10
2023-01-03T12:45:34.081Z,12.30
2023-01-03T12:48:20.082Z,12.30
2023-01-03T12:50:51.932Z,12.30
2023-01-03T12:53:32.027Z,12.40
2023-01-03T12:56:04.942Z,12.50
2023-01-03T12:59:01.014Z,12.60
2023-01-03T13:01:40.667Z,12.70
2023-01-03T13:04:35.938Z,12.60
2023-01-03T13:07:17.567Z,12.50
2023-01-03T13:09:56.028Z,12.60
2023-01-03T13:12:32.055Z,12.60
2023-01-03T13:15:37.525Z,12.60
2023-01-03T13:18:30.235Z,12.70
2023-01-03T13:20:59.482Z,12.60
2023-01-03T13:23:53.825Z,12.70
2023-01-03T13:26:28.011Z,12.70
2023-01-03T13:29:39.451Z,12.50
2023-01-03T13:32:26.466Z,12.50
2023-01-03T13:34:59.102Z,12.60
2023-01-03T13:37:27.807Z,12.60
2023-01-03T13:40:00.381Z,12.60
2023-01-03T13:42:40.136Z,12.60
2023-01-03T13:45:17.373Z,12.80
2023-01-03T13:47:47.498Z,12.80
2023-01-03T13:50:33.755Z,12.80
2023-01-03T13:53:22.461Z,12.90
2023-01-03T13:56:18.838Z,12.90
2023-01-03T13:59:26.152Z,12.80
2023-01-03T14:02:19.726Z,12.80
2023-01-03T14:05:05.374Z,12.70
2023-01-03T14:07:50.051Z,12.70
2023-01-03T14:10:35.282Z,12.60
2023-01-03T14:13:11.182Z,12.50
2023-01-03T14:15:38.030Z,12.60
2023-01-03T14:18:20.782Z,12.60
2023-01-03T14:20:53.194Z,12.50
2023-01-03T14:23:58.331Z,12.50
2023-01-03T14:26:17.325Z,12.50
2023-01-03T14:28:49.559Z,12.50
2023-01-03T14:31:23.062Z,12.50
2023-01-03T14:33:54.934Z,12.50
2023-01-03T14:36:22.009Z,12.60
2023-01-03T14:38:59.902Z,12.60
2023-01-03T14:41:29.915Z,12.60
2023-01-03T14:44:16.614Z,12.50
2023-01-03T14:46:53.357Z,12.50
2023-01-03T14:49:41.447Z,12.50
2023-01-03T14:52:27.216Z,12.50
2023-01-03T14:55:03.480Z,12.40
2023-01-03T14:57:31.119Z,12.30
2023-01-03T15:00:00.494Z,12.30
2023-01-03T15:02:38.989Z,12.30
2023-01-03T15:05:21.640Z,12.20
2023-01-03T15:07:48.426Z,12.20
2023-01-03T15:10:24.249Z,12.20
2023-01-03T15:12:56.375Z,12.00
2023-01-03T15:15:37.822Z,12.00
2023-01-03T15:18:09.653Z,12.00
2023-01-03T15:20:43.654Z,11.90
2023-01-03T15:23:37.811Z,11.80
2023-01-03T15:26:07.247Z,11.60
2023-01-03T15:28:49.043Z,11.60
2023-01-03T15:31:37.250Z,11.70
2023-01-03T15:34:19.589Z,11.60
2023-01-03T15:36:51.723Z,11.40
2023-01-03T15:39:22.161Z,11.20
2023-01-03T15:44:55.292Z,11.00
2023-01-03T15:47:26.367Z,11.00
2023-01-03T15:49:57.152Z,10.90
2023-01-03T15:52:24.085Z,10.80
2023-01-03T15:54:50.935Z,10.80
2023-01-03T15:57:22.479Z,10.50
2023-01-03T15:59:53.433Z,10.30
2023-01-03T16:02:21.491Z,10.30
2023-01-03T16:04:49.429Z,10.30
2023-01-03T16:07:16.235Z,10.20
2023-01-03T16:09:43.074Z,10.10
2023-01-03T16:12:23.409Z,9.90
2023-01-03T16:14:52.822Z,9.70
2023-01-03T16:17:28.162Z,9.80
2023-01-03T16:19:56.478Z,9.80
2023-01-03T16:22:49.479Z,9.80
2023-01-03T16:25:16.423Z,9.70
2023-01-03T16:27:43.387Z,9.50
2023-01-03T16:30:12.596Z,9.50
2023-01-03T16:32:39.762Z,9.30
2023-01-03T16:35:20.481Z,9.40
2023-01-03T16:37:47.301Z,9.30
2023-01-03T16:40:19.166Z,9.20
2023-01-03T16:42:46.749Z,9.20
2023-01-03T16:45:13.671Z,9.20
2023-01-03T16:47:42.570Z,9.10
2023-01-03T16:50:18.389Z,9.00
2023-01-03T16:52:49.047Z,9.00
2023-01-03T16:55:24.153Z,9.00
2023-01-03T16:57:54.555Z,9.00
2023-01-03T17:00:27.575Z,9.00
2023-01-03T17:02:56.187Z,8.90
2023-01-03T17:05:23.532Z,8.70
2023-01-03T17:07:53.294Z,8.70
2023-01-03T17:10:35.359Z,8.70
2023-01-03T17:13:10.134Z,8.80
2023-01-03T17:15:39.244Z,8.80
2023-01-03T17:18:06.160Z,8.80
2023-01-03T17:20:33.063Z,8.80
2023-01-03T17:23:00.414Z,8.80
2023-01-03T17:25:27.418Z,8.90
2023-01-03T17:27:57.426Z,8.90
2023-01-03T17:30:27.907Z,8.90
2023-01-03T17:32:58.114Z,8.90
2023-01-03T17:35:26.489Z,8.80
2023-01-03T17:40:43.542Z,8.80
2023-01-03T17:43:20.548Z,8.80
2023-01-03T17:46:07.693Z,8.80
2023-01-03T17:48:53.348Z,8.80
2023-01-03T17:51:21.244Z,8.90
2023-01-03T17:53:49.792Z,8.80
2023-01-03T17:56:19.314Z,8.80
2023-01-03T17:58:55.577Z,8.80
2023-01-03T18:01:23.277Z,8.80
2023-01-03T18:03:50.311Z,8.80
2023-01-03T18:06:23.757Z,8.80
2023-01-03T18:08:52.368Z,8.70
2023-01-03T18:11:21.752Z,8.70
2023-01-03T18:13:49.401Z,8.70
2023-01-03T18:16:19.113Z,8.70
2023-01-03T18:18:46.479Z,8.60
2023-01-03T18:21:22.577Z,8.60
2023-01-03T18:23:57.237Z,8.60
2023-01-03T18:26:39.183Z,8.60
2023-01-03T18:29:06.683Z,8.60
2023-01-03T18:31:33.811Z,8.60
2023-01-03T18:34:04.158Z,8.70
2023-01-03T18:36:38.603Z,8.60
2023-01-03T18:39:10.445Z,8.60
2023-01-03T18:41:37.341Z,8.60
2023-01-03T18:44:04.328Z,8.60
2023-01-03T18:46:31.218Z,8.60
2023-01-03T18:48:58.092Z,8.50
2023-01-03T18:51:28.925Z,8.50
2023-01-03T18:53:59.545Z,8.40
2023-01-03T18:56:30.904Z,8.50
2023-01-03T18:59:08.413Z,8.50
2023-01-03T19:01:36.055Z,8.50
2023-01-03T19:04:03.144Z,8.40
2023-01-03T19:06:31.515Z,8.50
2023-01-03T19:09:01.676Z,8.30
2023-01-03T19:11:35.803Z,8.40
2023-01-03T19:14:03.932Z,8.30
2023-01-03T19:16:33.671Z,8.30
2023-01-03T19:19:01.319Z,8.30
2023-01-03T19:21:36.656Z,8.30
2023-01-03T19:24:21.021Z,8.30
2023-01-03T19:26:52.508Z,8.20
2023-01-03T19:29:23.655Z,8.30
2023-01-03T19:31:53.977Z,8.30
2023-01-03T19:34:24.063Z,8.20
2023-01-03T19:36:51.240Z,8.20
2023-01-03T19:39:24.710Z,8.20
2023-01-03T19:42:16.915Z,8.20
2023-01-03T19:44:43.945Z,8.10
2023-01-03T19:47:16.437Z,8.10
2023-01-03T19:49:44.271Z,8.10
2023-01-03T19:52:11.092Z,8.00
2023-01-03T19:54:37.917Z,8.00
2023-01-03T19:57:05.346Z,8.00
2023-01-03T19:59:38.125Z,7.90
2023-01-03T20:02:37.746Z,7.90
2023-01-03T20:05:24.864Z,7.90
2023-01-03T20:07:52.702Z,7.90
2023-01-03T20:10:22.182Z,7.90
2023-01-03T20:12:53.249Z,8.00
2023-01-03T20:15:27.376Z,7.90
2023-01-03T20:17:54.820Z,8.00
2023-01-03T20:20:23.193Z,7.90
2023-01-03T20:23:08.007Z,8.00
2023-01-03T20:25:36.969Z,8.00
2023-01-03T20:28:04.129Z,8.00
2023-01-03T20:30:33.157Z,7.90
2023-01-03T20:33:00.002Z,7.90
2023-01-03T20:38:20.758Z,7.80
2023-01-03T20:40:47.521Z,7.80
2023-01-03T20:43:16.575Z,7.80
2023-01-03T20:45:43.461Z,7.70
2023-01-03T20:48:24.683Z,7.60
2023-01-03T20:50:52.631Z,7.60
2023-01-03T20:53:22.058Z,7.70
2023-01-03T20:55:50.751Z,7.70
2023-01-03T20:58:20.519Z,7.70
2023-01-03T21:00:47.759Z,7.70
2023-01-03T21:03:14.853Z,7.70
2023-01-03T21:05:41.771Z,7.70
2023-01-03T21:08:34.543Z,7.70
2023-01-03T21:11:02.124Z,7.70
2023-01-03T21:13:29.242Z,7.70
2023-01-03T21:15:56.151Z,7.60
2023-01-03T21:18:22.985Z,7.70
2023-01-03T21:20:49.879Z,7.60
2023-01-03T21:23:18.471Z,7.60
2023-01-03T21:25:45.921Z,7.50
2023-01-03T21:28:13.557Z,7.40
2023-01-03T21:30:40.987Z,7.40
2023-01-03T21:33:16.533Z,7.30
2023-01-03T21:35:43.939Z,7.20
2023-01-03T21:38:11.179Z,7.10
2023-01-03T21:40:38.080Z,7.00
2023-01-03T21:43:05.666Z,6.80
2023-01-03T21:45:47.595Z,6.80
2023-01-03T21:48:16.852Z,6.80
2023-01-03T21:50:46.018Z,7.00
2023-01-03T21:53:21.127Z,7.00
2023-01-03T21:55:50.734Z,7.00
2023-01-03T21:58:19.811Z,6.90
2023-01-03T22:00:46.697Z,6.90
2023-01-03T22:03:34.438Z,6.80
2023-01-03T22:06:06.154Z,6.80
2023-01-03T22:08:33.014Z,6.70
2023-01-03T22:10:59.870Z,6.60
2023-01-03T22:13:26.765Z,6.50
2023-01-03T22:15:53.549Z,6.40
2023-01-03T22:18:20.328Z,6.50
2023-01-03T22:20:47.976Z,6.50
2023-01-03T22:23:16.795Z,6.20
2023-01-03T22:25:43.555Z,6.20
2023-01-03T22:28:10.322Z,6.10
2023-01-03T22:30:39.131Z,6.10
2023-01-03T22:33:06.194Z,6.20
2023-01-03T22:35:32.979Z,6.10
2023-01-03T22:37:59.708Z,5.90
2023-01-03T22:40:26.506Z,6.00
2023-01-03T22:42:53.302Z,5.80
2023-01-03T22:45:20.188Z,5.70
2023-01-03T22:47:46.974Z,5.70
2023-01-03T22:50:13.861Z,5.60
2023-01-03T22:52:41.457Z,5.50
2023-01-03T22:55:08.561Z,5.50
2023-01-03T22:57:35.331Z,5.60
2023-01-03T23:00:02.966Z,5.70
2023-01-03T23:02:40.891Z,5.70
2023-01-03T23:05:08.690Z,5.60
2023-01-03T23:07:35.451Z,5.50
2023-01-03T23:10:02.291Z,5.50
2023-01-03T23:12:47.497Z,5.60
2023-01-03T23:15:14.346Z,5.70
2023-01-03T23:17:56.606Z,5.70
2023-01-03T23:20:33.369Z,5.60
2023-01-03T23:23:02.885Z,5.50
2023-01-03T23:25:35.263Z,5.50
2023-01-03T23:28:02.022Z,5.50
2023-01-03T23:30:28.801Z,5.50
2023-01-03T23:32:56.038Z,5.60
2023-01-03T23:35:22.830Z,5.60
2023-01-03T23:37:49.586Z,5.50
2023-01-03T23:40:16.615Z,5.50
2023-01-03T23:42:43.357Z,5.40
2023-01-03T23:45:10.422Z,5.30
2023-01-03T23:47:37.318Z,5.20
2023-01-03T23:50:04.328Z,5.30
2023-01-03T23:52:33.028Z,5.30
2023-01-03T23:55:03.618Z,5.40
2023-01-03T23:57:33.708Z,5.30
